»·PEaware :: RCH13 KLSV-KRIV

RCH13 :: KLSV-KRIV

FLIGHT INFORMATION

Flight Status: Arrived
Operator:
US Air Force AMC
More flights by this operator :: More flights under this callsign
Pilot: Damien O. (2415)
Aircraft: MCDONNELL-DOUGLAS C-17 GLOBEMASTER 3
(C17)
More flights by this aircraft type
Origin: KLSV Nellis AFB
United States
Destination: KRIV March ARB
United States
More flights between these airports :: More routes between these airports
Route: FYTTR3 HEC DAWNA HDF
File this flight plan on PilotEdge
Remarks:
Altitude:
(Current/Filed)
320ft
Speed:
(Current/Filed)
450kts
Departed: 12-Nov-16 05:55 PM
Arrived: 12-Nov-16 06:34 PM
Distance/Time
Traveled:
178nm/0:39
Distance/Time
To Go:
Arrived

Flight Plot

Page will automatically refresh every two minutes.


Map Options




Map Legend


Flown Route
Filed Route
Departure Airport
Arrival Airport
Navaid (VOR, NDB)
Fix

Horizontal Profiles

Position Reports

Time Latitude Longitude Heading Altitude Ground
Speed
12-Nov-16 17:28 36.244972 -115.034259 268 1882ft 0kts
12-Nov-16 17:29 36.244972 -115.034259 268 1882ft 0kts
12-Nov-16 17:30 36.244972 -115.034259 268 1882ft 0kts
12-Nov-16 17:31 36.244972 -115.034259 268 1882ft 0kts
12-Nov-16 17:32 36.244972 -115.034259 268 1882ft 0kts
12-Nov-16 17:33 36.244972 -115.034260 268 1882ft 0kts
12-Nov-16 17:34 36.244975 -115.034118 268 1882ft 2kts
12-Nov-16 17:35 36.244994 -115.033129 268 1882ft 2kts
12-Nov-16 17:36 36.245014 -115.032124 268 1882ft 2kts
12-Nov-16 17:37 36.245018 -115.031960 268 1882ft 0kts
12-Nov-16 17:38 36.245018 -115.031962 268 1882ft 0kts
12-Nov-16 17:39 36.245018 -115.031963 268 1882ft 0kts
12-Nov-16 17:40 36.245018 -115.031964 268 1882ft 0kts
12-Nov-16 17:41 36.245018 -115.031965 268 1882ft 0kts
12-Nov-16 17:42 36.243809 -115.032678 203 1882ft 8kts
12-Nov-16 17:43 36.240853 -115.034311 204 1882ft 14kts
12-Nov-16 17:44 36.237191 -115.038016 221 1882ft 19kts
12-Nov-16 17:45 36.232604 -115.043165 217 1882ft 24kts
12-Nov-16 17:46 36.228259 -115.047780 218 1882ft 7kts
12-Nov-16 17:47 36.227422 -115.047851 138 1882ft 0kts
12-Nov-16 17:48 36.227267 -115.047678 137 1882ft 4kts
12-Nov-16 17:49 36.243067 -115.029273 40 1888ft 236kts
12-Nov-16 17:50 36.317263 -114.951987 35 4985ft 440kts
12-Nov-16 17:51 36.424472 -114.968733 277 9951ft 430kts
12-Nov-16 17:52 36.355182 -115.037147 233 8810ft 306kts
12-Nov-16 17:53 36.308323 -115.130186 240 9698ft 349kts
12-Nov-16 17:54 36.261340 -115.239545 259 12730ft 370kts
12-Nov-16 17:55 36.277761 -115.367278 264 15765ft 388kts
12-Nov-16 17:56 36.216331 -115.463799 211 18569ft 416kts
12-Nov-16 17:57 36.107509 -115.525343 209 21610ft 434kts
12-Nov-16 17:58 36.000124 -115.598852 212 24606ft 452kts
12-Nov-16 17:59 35.888598 -115.678072 212 27617ft 465kts
12-Nov-16 18:00 35.776425 -115.757911 212 30618ft 465kts
12-Nov-16 18:01 35.661793 -115.839530 212 32007ft 482kts
12-Nov-16 18:02 35.548364 -115.920143 212 31999ft 463kts
12-Nov-16 18:03 35.437496 -115.998657 212 31999ft 459kts
12-Nov-16 18:04 35.326488 -116.077110 212 31999ft 457kts
12-Nov-16 18:05 35.216018 -116.155054 212 31999ft 457kts
12-Nov-16 18:06 35.108869 -116.230454 212 31997ft 442kts
12-Nov-16 18:07 35.001805 -116.305342 212 31999ft 430kts
12-Nov-16 18:08 34.896952 -116.378569 212 31005ft 436kts
12-Nov-16 18:09 34.794112 -116.450204 212 29270ft 421kts
12-Nov-16 18:10 34.693161 -116.520873 217 27495ft 405kts
12-Nov-16 18:11 34.626738 -116.625819 239 25144ft 374kts
12-Nov-16 18:12 34.571050 -116.724194 234 22653ft 340kts
12-Nov-16 18:13 34.510855 -116.810020 230 20120ft 322kts
12-Nov-16 18:14 34.450245 -116.887234 228 17615ft 309kts
12-Nov-16 18:15 34.391493 -116.959381 228 15136ft 297kts
12-Nov-16 18:16 34.334170 -117.029072 227 13039ft 275kts
12-Nov-16 18:17 34.278802 -117.093904 216 12998ft 282kts
12-Nov-16 18:18 34.200902 -117.121981 192 11366ft 293kts
12-Nov-16 18:19 34.121495 -117.134464 190 10034ft 277kts
12-Nov-16 18:20 34.048942 -117.145124 191 9985ft 279kts
12-Nov-16 18:21 33.966976 -117.129410 155 8154ft 293kts
12-Nov-16 18:22 33.909382 -117.088982 152 6672ft 285kts
12-Nov-16 18:23 33.827501 -117.048093 192 5347ft 278kts
12-Nov-16 18:24 33.779839 -117.094788 230 4096ft 261kts
12-Nov-16 18:25 33.775459 -117.169841 317 4029ft 220kts
12-Nov-16 18:26 33.822053 -117.208545 318 3488ft 194kts
12-Nov-16 18:27 33.862215 -117.246158 326 1645ft 159kts
12-Nov-16 18:28 33.881908 -117.260413 329 1547ft 32kts
12-Nov-16 18:29 33.883909 -117.256388 84 1547ft 21kts
12-Nov-16 18:30 33.885234 -117.251152 113 1547ft 9kts
12-Nov-16 18:31 33.885709 -117.249459 315 1547ft 0kts

Navigation Log

Ident Type
1. KLSV Airport
2. HEC Navaid
3. DAWNA Fix
4. HDF Navaid
5. KRIV Airport